sensor_id;sensor_type;location;lat;lon;timestamp;temperature;humidity
19538;DHT22;9914;51.008;4.300;2023-10-09T00:00:12;17.60;99.90
19538;DHT22;9914;51.008;4.300;2023-10-09T00:02:56;17.60;99.90
19538;DHT22;9914;51.008;4.300;2023-10-09T00:05:31;17.40;99.90
19538;DHT22;9914;51.008;4.300;2023-10-09T00:08:18;17.40;99.90
19538;DHT22;9914;51.008;4.300;2023-10-09T00:10:57;17.40;99.90
19538;DHT22;9914;51.008;4.300;2023-10-09T00:13:43;17.20;99.90
19538;DHT22;9914;51.008;4.300;2023-10-09T00:16:21;17.10;99.90
19538;DHT22;9914;51.008;4.300;2023-10-09T00:19:05;17.00;99.90
19538;DHT22;9914;51.008;4.300;2023-10-09T00:21:49;17.10;99.90
19538;DHT22;9914;51.008;4.300;2023-10-09T00:24:16;17.10;99.90
19538;DHT22;9914;51.008;4.300;2023-10-09T00:26:52;17.00;99.90
19538;DHT22;9914;51.008;4.300;2023-10-09T00:29:21;17.10;99.90
19538;DHT22;9914;51.008;4.300;2023-10-09T00:31:55;17.30;99.90
19538;DHT22;9914;51.008;4.300;2023-10-09T00:34:29;17.50;99.90
19538;DHT22;9914;51.008;4.300;2023-10-09T00:36:55;17.60;99.90
19538;DHT22;9914;51.008;4.300;2023-10-09T00:39:23;17.70;99.90
19538;DHT22;9914;51.008;4.300;2023-10-09T00:42:04;17.70;99.90
19538;DHT22;9914;51.008;4.300;2023-10-09T00:44:32;17.80;99.90
19538;DHT22;9914;51.008;4.300;2023-10-09T00:47:14;17.90;99.90
19538;DHT22;9914;51.008;4.300;2023-10-09T00:49:50;17.90;99.90
19538;DHT22;9914;51.008;4.300;2023-10-09T00:52:25;17.90;99.90
19538;DHT22;9914;51.008;4.300;2023-10-09T00:55:00;17.90;99.90
19538;DHT22;9914;51.008;4.300;2023-10-09T00:57:30;17.80;99.90
19538;DHT22;9914;51.008;4.300;2023-10-09T00:59:59;17.90;99.90
19538;DHT22;9914;51.008;4.300;2023-10-09T01:02:28;18.00;99.90
19538;DHT22;9914;51.008;4.300;2023-10-09T01:05:08;18.00;99.90
19538;DHT22;9914;51.008;4.300;2023-10-09T01:07:48;18.00;99.90
19538;DHT22;9914;51.008;4.300;2023-10-09T01:10:16;18.10;99.90
19538;DHT22;9914;51.008;4.300;2023-10-09T01:12:42;18.00;99.90
19538;DHT22;9914;51.008;4.300;2023-10-09T01:15:10;18.00;99.90
19538;DHT22;9914;51.008;4.300;2023-10-09T01:17:44;17.90;99.90
19538;DHT22;9914;51.008;4.300;2023-10-09T01:20:11;17.90;99.90
19538;DHT22;9914;51.008;4.300;2023-10-09T01:22:42;17.90;99.90
19538;DHT22;9914;51.008;4.300;2023-10-09T01:25:09;17.90;99.90
19538;DHT22;9914;51.008;4.300;2023-10-09T01:27:36;17.90;99.90
19538;DHT22;9914;51.008;4.300;2023-10-09T01:30:06;17.80;99.90
19538;DHT22;9914;51.008;4.300;2023-10-09T01:32:32;17.80;99.90
19538;DHT22;9914;51.008;4.300;2023-10-09T01:35:00;17.80;99.90
19538;DHT22;9914;51.008;4.300;2023-10-09T01:37:25;17.70;99.90
19538;DHT22;9914;51.008;4.300;2023-10-09T01:39:55;17.70;99.90
19538;DHT22;9914;51.008;4.300;2023-10-09T01:42:24;17.70;99.90
19538;DHT22;9914;51.008;4.300;2023-10-09T01:45:00;17.80;99.90
19538;DHT22;9914;51.008;4.300;2023-10-09T01:47:48;17.80;99.90
19538;DHT22;9914;51.008;4.300;2023-10-09T01:50:23;17.80;99.90
19538;DHT22;9914;51.008;4.300;2023-10-09T01:52:57;17.70;99.90
19538;DHT22;9914;51.008;4.300;2023-10-09T01:55:27;17.70;99.90
19538;DHT22;9914;51.008;4.300;2023-10-09T01:57:58;17.70;99.90
19538;DHT22;9914;51.008;4.300;2023-10-09T02:00:27;17.60;99.90
19538;DHT22;9914;51.008;4.300;2023-10-09T02:02:54;17.60;99.90
19538;DHT22;9914;51.008;4.300;2023-10-09T02:05:20;17.60;99.90
19538;DHT22;9914;51.008;4.300;2023-10-09T02:07:46;17.80;99.90
19538;DHT22;9914;51.008;4.300;2023-10-09T02:10:22;17.80;99.90
19538;DHT22;9914;51.008;4.300;2023-10-09T02:13:02;17.90;99.90
19538;DHT22;9914;51.008;4.300;2023-10-09T02:15:39;17.90;99.90
19538;DHT22;9914;51.008;4.300;2023-10-09T02:18:18;17.90;99.90
19538;DHT22;9914;51.008;4.300;2023-10-09T02:23:38;17.80;99.90
19538;DHT22;9914;51.008;4.300;2023-10-09T02:26:10;17.80;99.90
19538;DHT22;9914;51.008;4.300;2023-10-09T02:28:52;17.80;99.90
19538;DHT22;9914;51.008;4.300;2023-10-09T02:31:24;17.90;99.90
19538;DHT22;9914;51.008;4.300;2023-10-09T02:33:52;17.80;99.90
19538;DHT22;9914;51.008;4.300;2023-10-09T02:36:21;17.80;99.90
19538;DHT22;9914;51.008;4.300;2023-10-09T02:38:47;17.80;99.90
19538;DHT22;9914;51.008;4.300;2023-10-09T02:41:15;17.70;99.90
19538;DHT22;9914;51.008;4.300;2023-10-09T02:43:41;17.70;99.90
19538;DHT22;9914;51.008;4.300;2023-10-09T02:46:17;17.70;99.90
19538;DHT22;9914;51.008;4.300;2023-10-09T02:48:50;17.60;99.90
19538;DHT22;9914;51.008;4.300;2023-10-09T02:51:19;17.60;99.90
19538;DHT22;9914;51.008;4.300;2023-10-09T02:53:54;17.60;99.90
19538;DHT22;9914;51.008;4.300;2023-10-09T02:56:24;17.60;99.90
19538;DHT22;9914;51.008;4.300;2023-10-09T02:58:56;17.70;99.90
19538;DHT22;9914;51.008;4.300;2023-10-09T03:01:38;17.70;99.90
19538;DHT22;9914;51.008;4.300;2023-10-09T03:04:05;17.50;99.90
19538;DHT22;9914;51.008;4.300;2023-10-09T03:06:36;17.50;99.90
19538;DHT22;9914;51.008;4.300;2023-10-09T03:09:05;17.60;99.90
19538;DHT22;9914;51.008;4.300;2023-10-09T03:11:44;17.40;99.90
19538;DHT22;9914;51.008;4.300;2023-10-09T03:14:09;17.40;99.90
19538;DHT22;9914;51.008;4.300;2023-10-09T03:16:36;17.40;99.90
19538;DHT22;9914;51.008;4.300;2023-10-09T03:19:02;17.50;99.90
19538;DHT22;9914;51.008;4.300;2023-10-09T03:21:28;17.40;99.90
19538;DHT22;9914;51.008;4.300;2023-10-09T03:23:54;17.30;99.90
19538;DHT22;9914;51.008;4.300;2023-10-09T03:26:21;17.40;99.90
19538;DHT22;9914;51.008;4.300;2023-10-09T03:28:51;17.40;99.90
19538;DHT22;9914;51.008;4.300;2023-10-09T03:31:18;17.40;99.90
19538;DHT22;9914;51.008;4.300;2023-10-09T03:33:43;17.30;99.90
19538;DHT22;9914;51.008;4.300;2023-10-09T03:36:09;17.20;99.90
19538;DHT22;9914;51.008;4.300;2023-10-09T03:38:36;17.20;99.90
19538;DHT22;9914;51.008;4.300;2023-10-09T03:41:03;17.10;99.90
19538;DHT22;9914;51.008;4.300;2023-10-09T03:43:33;17.10;99.90
19538;DHT22;9914;51.008;4.300;2023-10-09T03:46:03;17.20;99.90
19538;DHT22;9914;51.008;4.300;2023-10-09T03:48:30;17.10;99.90
19538;DHT22;9914;51.008;4.300;2023-10-09T03:51:01;17.00;99.90
19538;DHT22;9914;51.008;4.300;2023-10-09T03:53:46;17.10;99.90
19538;DHT22;9914;51.008;4.300;2023-10-09T03:56:13;17.20;99.90
19538;DHT22;9914;51.008;4.300;2023-10-09T03:58:45;17.20;99.90
19538;DHT22;9914;51.008;4.300;2023-10-09T04:01:15;17.10;99.90
19538;DHT22;9914;51.008;4.300;2023-10-09T04:04:00;17.20;99.90
19538;DHT22;9914;51.008;4.300;2023-10-09T04:06:30;17.30;99.90
19538;DHT22;9914;51.008;4.300;2023-10-09T04:09:04;17.30;99.90
19538;DHT22;9914;51.008;4.300;2023-10-09T04:11:39;17.30;99.90
19538;DHT22;9914;51.008;4.300;2023-10-09T04:14:08;17.30;99.90
19538;DHT22;9914;51.008;4.300;2023-10-09T04:16:47;17.30;99.90
19538;DHT22;9914;51.008;4.300;2023-10-09T04:19:29;17.40;99.90
19538;DHT22;9914;51.008;4.300;2023-10-09T04:21:55;17.30;99.90
19538;DHT22;9914;51.008;4.300;2023-10-09T04:24:23;17.30;99.90
19538;DHT22;9914;51.008;4.300;2023-10-09T04:26:50;17.30;99.90
19538;DHT22;9914;51.008;4.300;2023-10-09T04:29:22;17.20;99.90
19538;DHT22;9914;51.008;4.300;2023-10-09T04:32:04;17.10;99.90
19538;DHT22;9914;51.008;4.300;2023-10-09T04:34:33;17.20;99.90
19538;DHT22;9914;51.008;4.300;2023-10-09T04:37:03;17.10;99.90
19538;DHT22;9914;51.008;4.300;2023-10-09T04:39:47;17.10;99.90
19538;DHT22;9914;51.008;4.300;2023-10-09T04:42:15;17.20;99.90
19538;DHT22;9914;51.008;4.300;2023-10-09T04:44:50;17.10;99.90
19538;DHT22;9914;51.008;4.300;2023-10-09T04:47:32;17.20;99.90
19538;DHT22;9914;51.008;4.300;2023-10-09T04:50:05;17.20;99.90
19538;DHT22;9914;51.008;4.300;2023-10-09T04:52:36;17.20;99.90
19538;DHT22;9914;51.008;4.300;2023-10-09T04:55:01;17.30;99.90
19538;DHT22;9914;51.008;4.300;2023-10-09T04:57:50;17.40;99.90
19538;DHT22;9914;51.008;4.300;2023-10-09T05:00:34;17.40;99.90
19538;DHT22;9914;51.008;4.300;2023-10-09T05:03:01;17.30;99.90
19538;DHT22;9914;51.008;4.300;2023-10-09T05:05:36;17.20;99.90
19538;DHT22;9914;51.008;4.300;2023-10-09T05:08:11;17.10;99.90
19538;DHT22;9914;51.008;4.300;2023-10-09T05:10:55;17.10;99.90
19538;DHT22;9914;51.008;4.300;2023-10-09T05:13:21;17.00;99.90
19538;DHT22;9914;51.008;4.300;2023-10-09T05:16:14;16.90;99.90
19538;DHT22;9914;51.008;4.300;2023-10-09T05:18:53;16.70;99.90
19538;DHT22;9914;51.008;4.300;2023-10-09T05:23:57;16.80;99.90
19538;DHT22;9914;51.008;4.300;2023-10-09T05:26:39;16.80;99.90
19538;DHT22;9914;51.008;4.300;2023-10-09T05:29:15;16.90;99.90
19538;DHT22;9914;51.008;4.300;2023-10-09T05:31:54;16.90;99.90
19538;DHT22;9914;51.008;4.300;2023-10-09T05:34:23;16.90;99.90
19538;DHT22;9914;51.008;4.300;2023-10-09T05:36:49;17.10;99.90
19538;DHT22;9914;51.008;4.300;2023-10-09T05:39:15;17.10;99.90
19538;DHT22;9914;51.008;4.300;2023-10-09T05:41:47;17.10;99.90
19538;DHT22;9914;51.008;4.300;2023-10-09T05:44:18;17.00;99.90
19538;DHT22;9914;51.008;4.300;2023-10-09T05:47:07;17.00;99.90
19538;DHT22;9914;51.008;4.300;2023-10-09T05:49:54;17.00;99.90
19538;DHT22;9914;51.008;4.300;2023-10-09T05:52:22;17.00;99.90
19538;DHT22;9914;51.008;4.300;2023-10-09T05:55:03;17.00;99.90
19538;DHT22;9914;51.008;4.300;2023-10-09T05:57:47;16.90;99.90
19538;DHT22;9914;51.008;4.300;2023-10-09T06:00:25;16.90;99.90
19538;DHT22;9914;51.008;4.300;2023-10-09T06:03:10;16.90;99.90
19538;DHT22;9914;51.008;4.300;2023-10-09T06:05:56;16.90;99.90
19538;DHT22;9914;51.008;4.300;2023-10-09T06:08:22;17.00;99.90
19538;DHT22;9914;51.008;4.300;2023-10-09T06:11:13;17.00;99.90
19538;DHT22;9914;51.008;4.300;2023-10-09T06:13:59;17.10;99.90
19538;DHT22;9914;51.008;4.300;2023-10-09T06:16:30;17.10;99.90
19538;DHT22;9914;51.008;4.300;2023-10-09T06:19:16;17.10;99.90
19538;DHT22;9914;51.008;4.300;2023-10-09T06:21:44;17.10;99.90
19538;DHT22;9914;51.008;4.300;2023-10-09T06:24:30;17.20;99.90
19538;DHT22;9914;51.008;4.300;2023-10-09T06:27:01;17.10;99.90
19538;DHT22;9914;51.008;4.300;2023-10-09T06:29:28;17.20;99.90
19538;DHT22;9914;51.008;4.300;2023-10-09T06:32:07;17.10;99.90
19538;DHT22;9914;51.008;4.300;2023-10-09T06:34:48;17.20;99.90
19538;DHT22;9914;51.008;4.300;2023-10-09T06:37:18;17.30;99.90
19538;DHT22;9914;51.008;4.300;2023-10-09T06:39:56;17.20;99.90
19538;DHT22;9914;51.008;4.300;2023-10-09T06:42:25;17.30;99.90
19538;DHT22;9914;51.008;4.300;2023-10-09T06:45:05;17.30;99.90
19538;DHT22;9914;51.008;4.300;2023-10-09T06:47:48;17.30;99.90
19538;DHT22;9914;51.008;4.300;2023-10-09T06:50:35;17.20;99.90
19538;DHT22;9914;51.008;4.300;2023-10-09T06:53:19;17.10;99.90
19538;DHT22;9914;51.008;4.300;2023-10-09T06:55:45;17.10;99.90
19538;DHT22;9914;51.008;4.300;2023-10-09T06:58:19;17.10;99.90
19538;DHT22;9914;51.008;4.300;2023-10-09T07:00:54;17.40;99.90
19538;DHT22;9914;51.008;4.300;2023-10-09T07:03:58;17.60;99.90
19538;DHT22;9914;51.008;4.300;2023-10-09T07:06:36;17.70;99.90
19538;DHT22;9914;51.008;4.300;2023-10-09T07:09:02;17.70;99.90
19538;DHT22;9914;51.008;4.300;2023-10-09T07:11:37;17.70;99.90
19538;DHT22;9914;51.008;4.300;2023-10-09T07:14:07;17.80;99.90
19538;DHT22;9914;51.008;4.300;2023-10-09T07:16:33;17.90;99.90
19538;DHT22;9914;51.008;4.300;2023-10-09T07:19:05;17.90;99.90
19538;DHT22;9914;51.008;4.300;2023-10-09T07:21:49;17.90;99.90
19538;DHT22;9914;51.008;4.300;2023-10-09T07:24:22;18.00;99.90
19538;DHT22;9914;51.008;4.300;2023-10-09T07:27:04;18.00;99.90
19538;DHT22;9914;51.008;4.300;2023-10-09T07:29:35;18.10;99.90
19538;DHT22;9914;51.008;4.300;2023-10-09T07:32:13;18.20;99.90
19538;DHT22;9914;51.008;4.300;2023-10-09T07:34:46;18.40;99.90
19538;DHT22;9914;51.008;4.300;2023-10-09T07:37:22;18.50;99.90
19538;DHT22;9914;51.008;4.300;2023-10-09T07:39:56;18.60;99.90
19538;DHT22;9914;51.008;4.300;2023-10-09T07:42:32;18.60;99.90
19538;DHT22;9914;51.008;4.300;2023-10-09T07:45:07;18.70;99.90
19538;DHT22;9914;51.008;4.300;2023-10-09T07:47:59;18.80;99.90
19538;DHT22;9914;51.008;4.300;2023-10-09T07:50:25;18.90;99.90
19538;DHT22;9914;51.008;4.300;2023-10-09T07:53:12;18.90;99.90
19538;DHT22;9914;51.008;4.300;2023-10-09T07:55:44;18.90;99.90
19538;DHT22;9914;51.008;4.300;2023-10-09T07:58:20;19.00;99.90
19538;DHT22;9914;51.008;4.300;2023-10-09T08:00:55;19.00;99.90
19538;DHT22;9914;51.008;4.300;2023-10-09T08:03:24;19.00;99.90
19538;DHT22;9914;51.008;4.300;2023-10-09T08:05:51;18.90;99.90
19538;DHT22;9914;51.008;4.300;2023-10-09T08:08:19;18.80;99.90
19538;DHT22;9914;51.008;4.300;2023-10-09T08:10:59;18.80;99.90
19538;DHT22;9914;51.008;4.300;2023-10-09T08:14:03;18.70;99.90
19538;DHT22;9914;51.008;4.300;2023-10-09T08:16:32;18.80;99.90
19538;DHT22;9914;51.008;4.300;2023-10-09T08:19:05;18.90;99.90
19538;DHT22;9914;51.008;4.300;2023-10-09T08:21:53;19.00;99.90
19538;DHT22;9914;51.008;4.300;2023-10-09T08:24:37;19.00;99.90
19538;DHT22;9914;51.008;4.300;2023-10-09T08:27:24;19.10;99.90
19538;DHT22;9914;51.008;4.300;2023-10-09T08:30:12;19.20;99.90
19538;DHT22;9914;51.008;4.300;2023-10-09T08:32:54;19.30;99.90
19538;DHT22;9914;51.008;4.300;2023-10-09T08:35:36;19.40;99.90
19538;DHT22;9914;51.008;4.300;2023-10-09T08:38:14;19.40;99.90
19538;DHT22;9914;51.008;4.300;2023-10-09T08:40:42;19.50;99.90
19538;DHT22;9914;51.008;4.300;2023-10-09T08:43:16;19.60;99.90
19538;DHT22;9914;51.008;4.300;2023-10-09T08:45:47;19.70;99.90
19538;DHT22;9914;51.008;4.300;2023-10-09T08:48:14;19.90;99.90
19538;DHT22;9914;51.008;4.300;2023-10-09T08:50:45;20.00;99.90
19538;DHT22;9914;51.008;4.300;2023-10-09T08:53:12;20.20;99.90
19538;DHT22;9914;51.008;4.300;2023-10-09T08:55:40;20.30;99.90
19538;DHT22;9914;51.008;4.300;2023-10-09T08:58:06;20.40;99.90
19538;DHT22;9914;51.008;4.300;2023-10-09T09:00:52;20.50;99.90
19538;DHT22;9914;51.008;4.300;2023-10-09T09:03:21;20.60;99.90
19538;DHT22;9914;51.008;4.300;2023-10-09T09:06:01;20.60;99.90
19538;DHT22;9914;51.008;4.300;2023-10-09T09:08:28;20.70;99.90
19538;DHT22;9914;51.008;4.300;2023-10-09T09:13:40;20.60;99.90
19538;DHT22;9914;51.008;4.300;2023-10-09T09:16:33;20.70;99.90
19538;DHT22;9914;51.008;4.300;2023-10-09T09:19:07;20.80;99.90
19538;DHT22;9914;51.008;4.300;2023-10-09T09:21:56;21.00;99.90
19538;DHT22;9914;51.008;4.300;2023-10-09T09:24:25;21.20;99.90
19538;DHT22;9914;51.008;4.300;2023-10-09T09:26:54;21.40;99.90
19538;DHT22;9914;51.008;4.300;2023-10-09T09:32:14;21.60;99.90
19538;DHT22;9914;51.008;4.300;2023-10-09T09:34:47;21.80;99.90
19538;DHT22;9914;51.008;4.300;2023-10-09T09:37:25;21.90;99.90
19538;DHT22;9914;51.008;4.300;2023-10-09T09:39:59;22.00;99.90
19538;DHT22;9914;51.008;4.300;2023-10-09T09:42:42;21.90;99.90
19538;DHT22;9914;51.008;4.300;2023-10-09T09:45:11;21.80;99.90
19538;DHT22;9914;51.008;4.300;2023-10-09T09:47:37;21.80;99.90
19538;DHT22;9914;51.008;4.300;2023-10-09T09:50:05;21.80;99.90
19538;DHT22;9914;51.008;4.300;2023-10-09T09:52:38;21.80;99.90
19538;DHT22;9914;51.008;4.300;2023-10-09T09:55:07;21.80;99.90
19538;DHT22;9914;51.008;4.300;2023-10-09T09:57:44;21.70;99.90
19538;DHT22;9914;51.008;4.300;2023-10-09T10:00:12;21.50;99.90
19538;DHT22;9914;51.008;4.300;2023-10-09T10:02:56;21.40;99.90
19538;DHT22;9914;51.008;4.300;2023-10-09T10:05:24;21.40;99.90
19538;DHT22;9914;51.008;4.300;2023-10-09T10:07:58;21.40;99.90
19538;DHT22;9914;51.008;4.300;2023-10-09T10:10:37;21.60;99.90
19538;DHT22;9914;51.008;4.300;2023-10-09T10:13:05;21.80;99.90
19538;DHT22;9914;51.008;4.300;2023-10-09T10:18:34;22.00;99.90
19538;DHT22;9914;51.008;4.300;2023-10-09T10:21:18;22.00;99.90
19538;DHT22;9914;51.008;4.300;2023-10-09T10:23:59;22.10;99.90
19538;DHT22;9914;51.008;4.300;2023-10-09T10:26:32;22.30;99.90
19538;DHT22;9914;51.008;4.300;2023-10-09T10:29:18;22.50;99.90
19538;DHT22;9914;51.008;4.300;2023-10-09T10:32:00;22.60;99.90
19538;DHT22;9914;51.008;4.300;2023-10-09T10:34:52;22.40;99.90
19538;DHT22;9914;51.008;4.300;2023-10-09T10:37:37;22.40;99.90
19538;DHT22;9914;51.008;4.300;2023-10-09T10:40:09;22.50;99.90
19538;DHT22;9914;51.008;4.300;2023-10-09T10:43:00;22.60;99.90
19538;DHT22;9914;51.008;4.300;2023-10-09T10:45:38;22.80;99.90
19538;DHT22;9914;51.008;4.300;2023-10-09T10:48:10;22.60;99.90
19538;DHT22;9914;51.008;4.300;2023-10-09T10:50:57;22.70;99.90
19538;DHT22;9914;51.008;4.300;2023-10-09T10:53:23;22.80;99.90
19538;DHT22;9914;51.008;4.300;2023-10-09T10:56:01;22.90;99.90
19538;DHT22;9914;51.008;4.300;2023-10-09T10:58:41;22.90;99.90
19538;DHT22;9914;51.008;4.300;2023-10-09T11:01:19;23.00;99.90
19538;DHT22;9914;51.008;4.300;2023-10-09T11:03:50;23.10;99.90
19538;DHT22;9914;51.008;4.300;2023-10-09T11:06:29;23.30;99.90
19538;DHT22;9914;51.008;4.300;2023-10-09T11:09:07;23.30;99.90
19538;DHT22;9914;51.008;4.300;2023-10-09T11:11:51;23.30;99.90
19538;DHT22;9914;51.008;4.300;2023-10-09T11:14:20;23.30;99.90
19538;DHT22;9914;51.008;4.300;2023-10-09T11:16:49;23.30;99.90
19538;DHT22;9914;51.008;4.300;2023-10-09T11:19:20;23.40;99.90
19538;DHT22;9914;51.008;4.300;2023-10-09T11:22:00;23.60;99.90
19538;DHT22;9914;51.008;4.300;2023-10-09T11:24:35;23.80;99.90
19538;DHT22;9914;51.008;4.300;2023-10-09T11:27:05;24.00;99.90
19538;DHT22;9914;51.008;4.300;2023-10-09T11:29:35;24.10;99.90
19538;DHT22;9914;51.008;4.300;2023-10-09T11:32:20;24.20;99.90
19538;DHT22;9914;51.008;4.300;2023-10-09T11:35:09;24.20;99.90
19538;DHT22;9914;51.008;4.300;2023-10-09T11:37:35;24.20;99.90
19538;DHT22;9914;51.008;4.300;2023-10-09T11:40:05;24.20;99.90
19538;DHT22;9914;51.008;4.300;2023-10-09T11:42:49;24.10;99.90
19538;DHT22;9914;51.008;4.300;2023-10-09T11:45:23;24.20;99.90
19538;DHT22;9914;51.008;4.300;2023-10-09T11:47:51;24.20;99.90
19538;DHT22;9914;51.008;4.300;2023-10-09T11:50:42;24.10;99.90
19538;DHT22;9914;51.008;4.300;2023-10-09T11:53:09;24.00;99.90
19538;DHT22;9914;51.008;4.300;2023-10-09T11:55:46;23.90;99.90
19538;DHT22;9914;51.008;4.300;2023-10-09T11:58:17;23.70;99.90
19538;DHT22;9914;51.008;4.300;2023-10-09T12:00:53;23.60;99.90
19538;DHT22;9914;51.008;4.300;2023-10-09T12:03:26;23.70;99.90
19538;DHT22;9914;51.008;4.300;2023-10-09T12:06:01;23.70;99.90
19538;DHT22;9914;51.008;4.300;2023-10-09T12:08:31;23.80;99.90
19538;DHT22;9914;51.008;4.300;2023-10-09T12:10:58;23.70;99.90
19538;DHT22;9914;51.008;4.300;2023-10-09T12:13:24;23.70;99.90
19538;DHT22;9914;51.008;4.300;2023-10-09T12:15:51;23.80;99.90
19538;DHT22;9914;51.008;4.300;2023-10-09T12:18:19;24.00;99.90
19538;DHT22;9914;51.008;4.300;2023-10-09T12:20:46;24.20;99.90
19538;DHT22;9914;51.008;4.300;2023-10-09T12:23:20;24.10;99.90
19538;DHT22;9914;51.008;4.300;2023-10-09T12:25:49;24.10;99.90
19538;DHT22;9914;51.008;4.300;2023-10-09T12:28:15;23.80;99.90
19538;DHT22;9914;51.008;4.300;2023-10-09T12:30:48;23.80;99.90
19538;DHT22;9914;51.008;4.300;2023-10-09T12:33:18;23.90;99.90
19538;DHT22;9914;51.008;4.300;2023-10-09T12:35:45;24.00;99.90
19538;DHT22;9914;51.008;4.300;2023-10-09T12:38:12;23.90;99.90
19538;DHT22;9914;51.008;4.300;2023-10-09T12:40:44;23.90;99.90
19538;DHT22;9914;51.008;4.300;2023-10-09T12:43:17;23.80;99.90
19538;DHT22;9914;51.008;4.300;2023-10-09T12:45:45;23.20;99.90
19538;DHT22;9914;51.008;4.300;2023-10-09T12:48:11;22.80;99.90
19538;DHT22;9914;51.008;4.300;2023-10-09T12:50:38;23.20;99.90
19538;DHT22;9914;51.008;4.300;2023-10-09T12:53:08;23.40;99.90
19538;DHT22;9914;51.008;4.300;2023-10-09T12:55:37;23.30;99.90
19538;DHT22;9914;51.008;4.300;2023-10-09T12:58:11;23.10;99.90
19538;DHT22;9914;51.008;4.300;2023-10-09T13:00:41;23.40;99.90
19538;DHT22;9914;51.008;4.300;2023-10-09T13:03:15;23.70;99.90
19538;DHT22;9914;51.008;4.300;2023-10-09T13:05:51;23.90;99.90
19538;DHT22;9914;51.008;4.300;2023-10-09T13:08:24;23.80;99.90
19538;DHT22;9914;51.008;4.300;2023-10-09T13:11:01;23.30;99.90
19538;DHT22;9914;51.008;4.300;2023-10-09T13:13:30;23.60;99.90
19538;DHT22;9914;51.008;4.300;2023-10-09T13:16:16;23.50;99.90
19538;DHT22;9914;51.008;4.300;2023-10-09T13:18:58;23.70;99.90
19538;DHT22;9914;51.008;4.300;2023-10-09T13:21:35;23.80;99.90
19538;DHT22;9914;51.008;4.300;2023-10-09T13:24:03;23.90;99.90
19538;DHT22;9914;51.008;4.300;2023-10-09T13:26:29;23.90;99.90
19538;DHT22;9914;51.008;4.300;2023-10-09T13:29:01;23.80;99.90
19538;DHT22;9914;51.008;4.300;2023-10-09T13:31:27;23.80;99.90
19538;DHT22;9914;51.008;4.300;2023-10-09T13:33:56;23.80;99.90
19538;DHT22;9914;51.008;4.300;2023-10-09T13:36:27;23.70;99.90
19538;DHT22;9914;51.008;4.300;2023-10-09T13:39:00;23.70;99.90
19538;DHT22;9914;51.008;4.300;2023-10-09T13:41:44;23.80;99.90
19538;DHT22;9914;51.008;4.300;2023-10-09T13:44:10;23.80;99.90
19538;DHT22;9914;51.008;4.300;2023-10-09T13:46:36;23.90;99.90
19538;DHT22;9914;51.008;4.300;2023-10-09T13:49:07;24.00;99.90
19538;DHT22;9914;51.008;4.300;2023-10-09T13:51:41;24.10;99.90
19538;DHT22;9914;51.008;4.300;2023-10-09T13:54:13;24.10;99.90
19538;DHT22;9914;51.008;4.300;2023-10-09T13:56:47;24.10;99.90
19538;DHT22;9914;51.008;4.300;2023-10-09T13:59:14;24.00;99.90
19538;DHT22;9914;51.008;4.300;2023-10-09T14:01:45;24.10;99.90
19538;DHT22;9914;51.008;4.300;2023-10-09T14:04:13;24.10;99.90
19538;DHT22;9914;51.008;4.300;2023-10-09T14:06:44;24.10;99.90
19538;DHT22;9914;51.008;4.300;2023-10-09T14:09:10;24.20;99.90
19538;DHT22;9914;51.008;4.300;2023-10-09T14:11:37;24.30;99.90
19538;DHT22;9914;51.008;4.300;2023-10-09T14:14:09;24.20;99.90
19538;DHT22;9914;51.008;4.300;2023-10-09T14:16:38;24.30;99.90
19538;DHT22;9914;51.008;4.300;2023-10-09T14:19:09;24.40;99.90
19538;DHT22;9914;51.008;4.300;2023-10-09T14:21:39;24.60;99.90
19538;DHT22;9914;51.008;4.300;2023-10-09T14:24:07;24.70;99.90
19538;DHT22;9914;51.008;4.300;2023-10-09T14:26:43;24.70;99.90
19538;DHT22;9914;51.008;4.300;2023-10-09T14:29:11;24.60;99.90
19538;DHT22;9914;51.008;4.300;2023-10-09T14:31:45;24.50;99.90
19538;DHT22;9914;51.008;4.300;2023-10-09T14:34:25;24.50;99.90
19538;DHT22;9914;51.008;4.300;2023-10-09T14:36:55;24.40;99.90
19538;DHT22;9914;51.008;4.300;2023-10-09T14:39:20;24.40;99.90
19538;DHT22;9914;51.008;4.300;2023-10-09T14:41:52;24.20;99.90
19538;DHT22;9914;51.008;4.300;2023-10-09T14:44:24;24.00;99.90
19538;DHT22;9914;51.008;4.300;2023-10-09T14:46:49;23.90;99.90
19538;DHT22;9914;51.008;4.300;2023-10-09T14:49:16;24.00;99.90
19538;DHT22;9914;51.008;4.300;2023-10-09T14:51:47;24.00;99.90
19538;DHT22;9914;51.008;4.300;2023-10-09T14:54:13;24.00;99.90
19538;DHT22;9914;51.008;4.300;2023-10-09T14:56:44;23.90;99.90
19538;DHT22;9914;51.008;4.300;2023-10-09T14:59:11;23.90;99.90
19538;DHT22;9914;51.008;4.300;2023-10-09T15:01:37;23.80;99.90
19538;DHT22;9914;51.008;4.300;2023-10-09T15:04:03;23.90;99.90
19538;DHT22;9914;51.008;4.300;2023-10-09T15:06:29;23.80;99.90
19538;DHT22;9914;51.008;4.300;2023-10-09T15:08:56;23.80;99.90
19538;DHT22;9914;51.008;4.300;2023-10-09T15:11:23;23.80;99.90
19538;DHT22;9914;51.008;4.300;2023-10-09T15:13:56;23.80;99.90
19538;DHT22;9914;51.008;4.300;2023-10-09T15:16:24;23.80;99.90
19538;DHT22;9914;51.008;4.300;2023-10-09T15:18:53;23.60;99.90
19538;DHT22;9914;51.008;4.300;2023-10-09T15:21:20;23.50;99.90
19538;DHT22;9914;51.008;4.300;2023-10-09T15:23:49;23.40;99.90
19538;DHT22;9914;51.008;4.300;2023-10-09T15:26:17;23.30;99.90
19538;DHT22;9914;51.008;4.300;2023-10-09T15:28:42;23.30;99.90
19538;DHT22;9914;51.008;4.300;2023-10-09T15:31:08;23.40;99.90
19538;DHT22;9914;51.008;4.300;2023-10-09T15:33:37;24.20;99.90
19538;DHT22;9914;51.008;4.300;2023-10-09T15:36:12;25.10;99.90
19538;DHT22;9914;51.008;4.300;2023-10-09T15:38:38;25.80;99.90
19538;DHT22;9914;51.008;4.300;2023-10-09T15:41:04;26.30;99.90
19538;DHT22;9914;51.008;4.300;2023-10-09T15:43:32;26.50;99.90
19538;DHT22;9914;51.008;4.300;2023-10-09T15:45:59;26.70;99.90
19538;DHT22;9914;51.008;4.300;2023-10-09T15:48:25;27.00;99.90
19538;DHT22;9914;51.008;4.300;2023-10-09T15:50:50;27.00;99.90
19538;DHT22;9914;51.008;4.300;2023-10-09T15:53:17;27.00;99.90
19538;DHT22;9914;51.008;4.300;2023-10-09T15:55:44;27.00;99.90
19538;DHT22;9914;51.008;4.300;2023-10-09T15:58:10;26.70;99.90
19538;DHT22;9914;51.008;4.300;2023-10-09T16:00:36;26.40;99.90
19538;DHT22;9914;51.008;4.300;2023-10-09T16:03:03;26.30;99.90
19538;DHT22;9914;51.008;4.300;2023-10-09T16:05:30;26.40;99.90
19538;DHT22;9914;51.008;4.300;2023-10-09T16:07:57;26.30;99.90
19538;DHT22;9914;51.008;4.300;2023-10-09T16:10:23;25.80;99.90
19538;DHT22;9914;51.008;4.300;2023-10-09T16:12:49;25.20;99.90
19538;DHT22;9914;51.008;4.300;2023-10-09T16:15:18;24.70;99.90
19538;DHT22;9914;51.008;4.300;2023-10-09T16:17:48;24.30;99.90
19538;DHT22;9914;51.008;4.300;2023-10-09T16:20:15;24.10;99.90
19538;DHT22;9914;51.008;4.300;2023-10-09T16:22:49;24.10;99.90
19538;DHT22;9914;51.008;4.300;2023-10-09T16:25:15;24.20;99.90
19538;DHT22;9914;51.008;4.300;2023-10-09T16:27:43;24.30;99.90
19538;DHT22;9914;51.008;4.300;2023-10-09T16:30:16;24.30;99.90
19538;DHT22;9914;51.008;4.300;2023-10-09T16:32:51;24.30;99.90
19538;DHT22;9914;51.008;4.300;2023-10-09T16:35:17;24.00;99.90